createdAt,value
2017-07-28T00:01:40.645Z,97790.22
2017-07-28T00:04:08.988Z,97787.34
2017-07-28T00:06:37.335Z,97790.27
2017-07-28T00:09:05.667Z,97792.81
2017-07-28T00:11:34.042Z,97790.38
2017-07-28T00:14:02.398Z,97792.59
2017-07-28T00:16:30.771Z,97795.08
2017-07-28T00:18:59.122Z,97807.72
2017-07-28T00:21:27.439Z,97809.84
2017-07-28T00:23:55.785Z,97805.44
2017-07-28T00:26:24.122Z,97808.95
2017-07-28T00:28:52.488Z,97807.25
2017-07-28T00:31:20.820Z,97815.59
2017-07-28T00:33:49.182Z,97806.59
2017-07-28T00:36:17.583Z,97811.16
2017-07-28T00:38:45.900Z,97807.86
2017-07-28T00:41:14.335Z,97808.80
2017-07-28T00:43:42.668Z,97808.26
2017-07-28T00:46:11.013Z,97815.92
2017-07-28T00:48:39.344Z,97812.67
2017-07-28T00:51:07.964Z,97816.13
2017-07-28T00:53:36.309Z,97808.30
2017-07-28T00:56:05.273Z,97814.39
2017-07-28T00:58:34.352Z,97820.14
2017-07-28T01:01:02.667Z,97820.84
2017-07-28T01:03:31.020Z,97818.89
2017-07-28T01:05:59.351Z,97819.64
2017-07-28T01:08:27.974Z,97810.59
2017-07-28T01:10:56.310Z,97814.00
2017-07-28T01:13:24.666Z,97809.67
2017-07-28T01:15:53.029Z,97811.70
2017-07-28T01:18:21.361Z,97824.73
2017-07-28T01:20:49.709Z,97824.15
2017-07-28T01:23:18.039Z,97833.53
2017-07-28T01:25:46.496Z,97831.27
2017-07-28T01:28:14.836Z,97829.38
2017-07-28T01:30:43.170Z,97838.83
2017-07-28T01:33:11.797Z,97833.19
2017-07-28T01:35:40.111Z,97838.53
2017-07-28T01:38:08.448Z,97838.97
2017-07-28T01:40:36.792Z,97840.48
2017-07-28T01:43:05.117Z,97844.19
2017-07-28T01:45:33.452Z,97842.34
2017-07-28T01:48:01.758Z,97852.25
2017-07-28T01:50:30.107Z,97850.32
2017-07-28T01:52:58.453Z,97847.69
2017-07-28T01:55:26.772Z,97846.82
2017-07-28T01:57:55.396Z,97851.02
2017-07-28T02:00:23.716Z,97856.50
2017-07-28T02:02:52.047Z,97853.27
2017-07-28T02:05:20.466Z,97855.20
2017-07-28T02:07:48.814Z,97856.78
2017-07-28T02:10:17.174Z,97855.20
2017-07-28T02:12:45.509Z,97860.39
2017-07-28T02:15:13.859Z,97861.05
2017-07-28T02:17:42.997Z,97857.90
2017-07-28T02:20:11.329Z,97866.04
2017-07-28T02:22:39.943Z,97874.08
2017-07-28T02:25:08.292Z,97870.20
2017-07-28T02:27:36.701Z,97875.47
2017-07-28T02:30:05.061Z,97873.47
2017-07-28T02:32:33.384Z,97875.59
2017-07-28T02:35:01.767Z,97886.19
2017-07-28T02:37:30.097Z,97886.12
2017-07-28T02:39:58.453Z,97883.31
2017-07-28T02:42:26.806Z,97891.34
2017-07-28T02:44:55.144Z,97888.23
2017-07-28T02:47:23.495Z,97897.97
2017-07-28T02:49:51.807Z,97904.22
2017-07-28T02:52:20.153Z,97894.12
2017-07-28T02:54:48.507Z,97889.72
2017-07-28T02:57:16.871Z,97890.00
2017-07-28T02:59:45.192Z,97895.12
2017-07-28T03:02:13.569Z,97902.78
2017-07-28T03:04:41.890Z,97895.63
2017-07-28T03:07:10.219Z,97897.87
2017-07-28T03:09:38.586Z,97906.85
2017-07-28T03:12:06.918Z,97908.77
2017-07-28T03:14:35.267Z,97906.05
2017-07-28T03:17:03.591Z,97907.77
2017-07-28T03:19:31.942Z,97908.72
2017-07-28T03:22:00.302Z,97910.67
2017-07-28T03:24:28.615Z,97912.45
2017-07-28T03:26:56.967Z,97907.18
2017-07-28T03:29:25.280Z,97914.34
2017-07-28T03:31:53.628Z,97910.16
2017-07-28T03:34:21.989Z,97911.13
2017-07-28T03:36:50.329Z,97911.97
2017-07-28T03:39:18.692Z,97913.55
2017-07-28T03:41:47.048Z,97907.61
2017-07-28T03:44:15.393Z,97905.39
2017-07-28T03:46:43.737Z,97910.73
2017-07-28T03:49:12.075Z,97917.78
2017-07-28T03:51:40.678Z,97924.87
2017-07-28T03:54:09.023Z,97926.70
2017-07-28T03:56:37.334Z,97933.44
2017-07-28T03:59:05.938Z,97935.45
2017-07-28T04:01:34.266Z,97941.91
2017-07-28T04:04:02.583Z,97947.50
2017-07-28T04:06:30.923Z,97946.11
2017-07-28T04:08:59.248Z,97956.61
2017-07-28T04:11:27.597Z,97958.28
2017-07-28T04:13:55.918Z,97961.33
2017-07-28T04:16:24.260Z,97964.16
2017-07-28T04:18:52.613Z,97961.89
2017-07-28T04:21:20.925Z,97960.16
2017-07-28T04:23:49.537Z,97962.45
2017-07-28T04:26:17.862Z,97965.83
2017-07-28T04:28:46.179Z,97966.20
2017-07-28T04:31:14.533Z,97960.63
2017-07-28T04:33:42.879Z,97976.98
2017-07-28T04:36:11.234Z,97976.05
2017-07-28T04:38:39.564Z,97982.84
2017-07-28T04:41:07.917Z,97980.84
2017-07-28T04:43:36.269Z,97969.71
2017-07-28T04:46:04.593Z,97962.05
2017-07-28T04:48:32.960Z,97965.46
2017-07-28T04:51:01.280Z,97963.82
2017-07-28T04:53:29.634Z,97969.69
2017-07-28T04:55:57.997Z,97982.06
2017-07-28T04:58:26.350Z,97984.20
2017-07-28T05:00:54.700Z,97988.23
2017-07-28T05:03:23.064Z,97985.62
2017-07-28T05:05:51.432Z,97989.14
2017-07-28T05:08:19.785Z,97985.60
2017-07-28T05:10:48.121Z,97983.56
2017-07-28T05:13:17.227Z,97986.17
2017-07-28T05:15:45.586Z,97992.47
2017-07-28T05:18:13.923Z,97995.87
2017-07-28T05:20:42.280Z,97985.45
2017-07-28T05:23:10.618Z,97986.13
2017-07-28T05:25:38.967Z,97995.00
2017-07-28T05:28:07.282Z,97997.71
2017-07-28T05:30:35.629Z,97986.60
2017-07-28T05:33:03.975Z,97989.55
2017-07-28T05:35:32.317Z,97992.49
2017-07-28T05:38:01.031Z,98002.94
2017-07-28T05:40:29.356Z,97998.97
2017-07-28T05:42:57.696Z,98015.27
2017-07-28T05:45:26.822Z,98018.00
2017-07-28T05:47:55.158Z,98014.59
2017-07-28T05:50:23.862Z,98016.59
2017-07-28T05:52:52.192Z,98017.77
2017-07-28T05:55:20.502Z,98015.52
2017-07-28T05:57:49.613Z,98020.20
2017-07-28T06:00:17.963Z,98021.08
2017-07-28T06:02:46.319Z,98014.78
2017-07-28T06:05:14.648Z,98017.78
2017-07-28T06:07:43.767Z,98028.53
2017-07-28T06:10:12.113Z,98034.48
2017-07-28T06:12:40.452Z,98036.31
2017-07-28T06:15:08.792Z,98040.73
2017-07-28T06:17:37.125Z,98046.53
2017-07-28T06:20:05.477Z,98052.89
2017-07-28T06:22:33.811Z,98039.30
2017-07-28T06:25:02.137Z,98048.45
2017-07-28T06:27:30.494Z,98049.31
2017-07-28T06:29:58.820Z,98054.97
2017-07-28T06:32:27.153Z,98056.96
2017-07-28T06:34:55.508Z,98053.02
2017-07-28T06:37:24.606Z,98044.95
2017-07-28T06:39:52.953Z,98046.57
2017-07-28T06:42:21.305Z,98054.02
2017-07-28T06:44:49.637Z,98057.54
2017-07-28T06:47:17.978Z,98052.44
2017-07-28T06:49:46.306Z,98053.98
2017-07-28T06:52:14.666Z,98070.23
2017-07-28T06:54:43.030Z,98065.54
2017-07-28T06:57:11.380Z,98055.23
2017-07-28T06:59:39.734Z,98057.59
2017-07-28T07:02:08.064Z,98059.21
2017-07-28T07:04:36.797Z,98063.67
2017-07-28T07:07:05.115Z,98063.67
2017-07-28T07:09:33.447Z,98067.13
2017-07-28T07:12:02.555Z,98073.22
2017-07-28T07:14:30.890Z,98074.92
2017-07-28T07:16:59.244Z,98071.52
2017-07-28T07:19:27.554Z,98069.98
2017-07-28T07:21:55.898Z,98072.21
2017-07-28T07:24:24.248Z,98075.55
2017-07-28T07:26:52.570Z,98073.91
2017-07-28T07:29:20.933Z,98071.25
2017-07-28T07:31:49.276Z,98074.02
2017-07-28T07:34:17.676Z,98076.73
2017-07-28T07:36:46.038Z,98069.88
2017-07-28T07:39:14.370Z,98075.50
2017-07-28T07:41:42.749Z,98075.79
2017-07-28T07:44:11.073Z,98071.73
2017-07-28T07:46:40.217Z,98078.80
2017-07-28T07:49:08.560Z,98082.91
2017-07-28T07:51:36.901Z,98086.73
2017-07-28T07:54:05.625Z,98086.16
2017-07-28T07:56:33.957Z,98088.87
2017-07-28T07:59:02.317Z,98091.90
2017-07-28T08:01:30.657Z,98085.73
2017-07-28T08:03:59.029Z,98084.58
2017-07-28T08:06:29.278Z,98085.55
2017-07-28T08:08:57.614Z,98092.28
2017-07-28T08:11:25.964Z,98100.84
2017-07-28T08:13:54.374Z,98108.45
2017-07-28T08:16:22.718Z,98109.59
2017-07-28T08:18:51.098Z,98108.77
2017-07-28T08:21:19.446Z,98106.23
2017-07-28T08:23:47.815Z,98112.88
2017-07-28T08:26:16.173Z,98112.56
2017-07-28T08:28:44.516Z,98124.44
2017-07-28T08:31:12.893Z,98117.66
2017-07-28T08:33:41.237Z,98118.58
2017-07-28T08:36:09.589Z,98129.04
2017-07-28T08:38:37.926Z,98131.66
2017-07-28T08:41:06.258Z,98132.92
2017-07-28T08:43:34.602Z,98139.61
2017-07-28T08:46:03.442Z,98133.28
2017-07-28T08:48:31.767Z,98136.59
2017-07-28T08:51:00.100Z,98142.86
2017-07-28T08:53:29.220Z,98146.42
2017-07-28T08:55:58.441Z,98142.20
2017-07-28T08:58:26.792Z,98143.69
2017-07-28T09:00:55.133Z,98141.79
2017-07-28T09:03:23.463Z,98146.17
2017-07-28T09:05:51.800Z,98138.92
2017-07-28T09:08:20.167Z,98136.53
2017-07-28T09:10:48.522Z,98140.61
2017-07-28T09:13:16.855Z,98138.55
2017-07-28T09:15:45.198Z,98131.79
2017-07-28T09:18:13.539Z,98136.64
2017-07-28T09:20:41.900Z,98141.72
2017-07-28T09:23:10.248Z,98138.14
2017-07-28T09:25:38.588Z,98140.53
2017-07-28T09:28:06.950Z,98139.75
2017-07-28T09:30:35.289Z,98137.88
2017-07-28T09:33:03.889Z,98132.17
2017-07-28T09:35:32.220Z,98129.24
2017-07-28T09:38:00.549Z,98124.54
2017-07-28T09:40:29.659Z,98134.41
2017-07-28T09:42:57.983Z,98133.95
2017-07-28T09:45:26.327Z,98133.48
2017-07-28T09:47:54.688Z,98132.20
2017-07-28T09:50:23.780Z,98138.88
2017-07-28T09:52:52.138Z,98137.66
2017-07-28T09:55:20.468Z,98145.83
2017-07-28T09:57:48.821Z,98137.84
2017-07-28T10:00:17.926Z,98140.91
2017-07-28T10:02:46.265Z,98139.86
2017-07-28T10:05:14.603Z,98139.69
2017-07-28T10:07:42.924Z,98148.00
2017-07-28T10:10:11.730Z,98143.13
2017-07-28T10:12:40.074Z,98147.05
2017-07-28T10:15:08.422Z,98145.11
2017-07-28T10:17:37.721Z,98141.59
2017-07-28T10:20:06.085Z,98154.72
2017-07-28T10:22:35.254Z,98159.48
2017-07-28T10:25:03.622Z,98164.87
2017-07-28T10:27:31.946Z,98161.41
2017-07-28T10:30:00.299Z,98153.88
2017-07-28T10:32:28.638Z,98152.55
2017-07-28T10:34:56.972Z,98143.69
2017-07-28T10:37:25.326Z,98142.94
2017-07-28T10:39:53.671Z,98144.23
2017-07-28T10:42:21.988Z,98143.89
2017-07-28T10:44:50.361Z,98153.34
2017-07-28T10:47:18.712Z,98155.83
2017-07-28T10:49:47.028Z,98155.48
2017-07-28T10:52:15.382Z,98152.30
2017-07-28T10:54:43.724Z,98164.28
2017-07-28T10:57:12.075Z,98157.31
2017-07-28T10:59:40.429Z,98156.63
2017-07-28T11:02:08.780Z,98165.39
2017-07-28T11:04:37.134Z,98163.04
2017-07-28T11:07:05.467Z,98158.22
2017-07-28T11:09:33.784Z,98146.63
2017-07-28T11:12:02.488Z,98147.64
2017-07-28T11:14:30.827Z,98170.77
2017-07-28T11:16:59.147Z,98167.15
2017-07-28T11:19:27.483Z,98160.10
2017-07-28T11:21:55.826Z,98162.66
2017-07-28T11:24:24.193Z,98158.78
2017-07-28T11:26:52.542Z,98160.21
2017-07-28T11:29:20.889Z,98152.67
2017-07-28T11:31:49.245Z,98156.66
2017-07-28T11:34:17.582Z,98148.69
2017-07-28T11:36:45.931Z,98150.09
2017-07-28T11:39:14.273Z,98151.61
2017-07-28T11:41:42.659Z,98151.41
2017-07-28T11:44:11.019Z,98156.04
2017-07-28T11:46:39.375Z,98155.02
2017-07-28T11:49:08.176Z,98152.44
2017-07-28T11:51:36.505Z,98147.59
2017-07-28T11:54:04.822Z,98147.59
2017-07-28T11:56:34.072Z,98140.34
2017-07-28T11:59:02.392Z,98148.91
2017-07-28T12:01:30.744Z,98140.14
2017-07-28T12:03:59.066Z,98151.86
2017-07-28T12:06:27.423Z,98151.30
2017-07-28T12:08:55.794Z,98155.17
2017-07-28T12:11:24.125Z,98155.45
2017-07-28T12:13:52.530Z,98159.99
2017-07-28T12:16:20.851Z,98164.88
2017-07-28T12:18:49.186Z,98161.05
2017-07-28T12:21:17.530Z,98158.86
2017-07-28T12:23:46.804Z,98155.98
2017-07-28T12:26:15.143Z,98159.73
2017-07-28T12:28:43.505Z,98165.18
2017-07-28T12:31:11.822Z,98157.20
2017-07-28T12:33:40.166Z,98162.03
2017-07-28T12:36:08.499Z,98162.03
2017-07-28T12:38:36.845Z,98155.55
2017-07-28T12:41:05.209Z,98155.90
2017-07-28T12:43:33.544Z,98156.26
2017-07-28T12:46:02.457Z,98151.98
2017-07-28T12:48:30.785Z,98152.05
2017-07-28T12:50:59.121Z,98145.52
2017-07-28T12:53:28.247Z,98145.92
2017-07-28T12:55:56.584Z,98153.91
2017-07-28T12:58:25.281Z,98148.87
2017-07-28T13:00:53.619Z,98152.19
2017-07-28T13:03:21.958Z,98160.17
2017-07-28T13:05:50.704Z,98157.47
2017-07-28T13:08:19.060Z,98159.59
2017-07-28T13:10:47.418Z,98163.07
2017-07-28T13:13:15.757Z,98157.47
2017-07-28T13:15:44.862Z,98161.70
2017-07-28T13:18:13.221Z,98152.27
2017-07-28T13:20:41.566Z,98149.97
2017-07-28T13:23:09.920Z,98145.77
2017-07-28T13:25:38.270Z,98143.88
2017-07-28T13:28:07.393Z,98145.66
2017-07-28T13:30:36.055Z,98149.91
2017-07-28T13:33:04.395Z,98151.27
2017-07-28T13:35:32.739Z,98152.33
2017-07-28T13:38:01.080Z,98149.48
2017-07-28T13:40:29.408Z,98160.43
2017-07-28T13:42:57.761Z,98163.87
2017-07-28T13:45:26.122Z,98158.66
2017-07-28T13:47:54.460Z,98169.89
2017-07-28T13:50:22.808Z,98165.81
2017-07-28T13:52:51.142Z,98167.13
2017-07-28T13:55:19.783Z,98170.23
2017-07-28T13:57:48.124Z,98165.66
2017-07-28T14:00:16.839Z,98175.52
2017-07-28T14:02:45.181Z,98186.80
2017-07-28T14:05:13.523Z,98169.38
2017-07-28T14:07:41.878Z,98168.55
2017-07-28T14:10:10.216Z,98173.75
2017-07-28T14:12:38.535Z,98172.25
2017-07-28T14:15:06.869Z,98159.82
2017-07-28T14:17:35.210Z,98166.47
2017-07-28T14:20:03.953Z,98156.91
2017-07-28T14:22:32.288Z,98161.27
2017-07-28T14:25:00.638Z,98169.39
2017-07-28T14:27:29.103Z,98173.88
2017-07-28T14:29:57.444Z,98177.98
2017-07-28T14:32:26.200Z,98178.74
2017-07-28T14:34:54.544Z,98183.53
2017-07-28T14:37:22.873Z,98186.06
2017-07-28T14:39:51.214Z,98182.25
2017-07-28T14:42:20.306Z,98186.02
2017-07-28T14:44:48.999Z,98188.45
2017-07-28T14:47:17.314Z,98190.53
2017-07-28T14:49:45.650Z,98189.77
2017-07-28T14:52:14.770Z,98186.94
2017-07-28T14:54:43.110Z,98181.48
2017-07-28T14:57:11.447Z,98192.79
2017-07-28T14:59:39.783Z,98186.53
2017-07-28T15:02:08.888Z,98184.98
2017-07-28T15:04:37.216Z,98188.69
2017-07-28T15:07:05.558Z,98194.70
2017-07-28T15:09:33.888Z,98185.52
2017-07-28T15:12:02.712Z,98189.44
2017-07-28T15:14:31.037Z,98184.01
2017-07-28T15:16:59.378Z,98178.87
2017-07-28T15:19:28.506Z,98176.68
2017-07-28T15:21:56.842Z,98177.42
2017-07-28T15:24:25.202Z,98185.91
2017-07-28T15:26:53.533Z,98180.09
2017-07-28T15:29:21.894Z,98180.73
2017-07-28T15:31:51.019Z,98175.82
2017-07-28T15:34:19.327Z,98168.11
2017-07-28T15:36:47.685Z,98170.08
2017-07-28T15:39:16.057Z,98167.73
2017-07-28T15:41:44.411Z,98156.94
2017-07-28T15:44:12.815Z,98158.10
2017-07-28T15:46:41.195Z,98160.39
2017-07-28T15:49:09.549Z,98166.31
2017-07-28T15:51:38.657Z,98174.06
2017-07-28T15:54:07.025Z,98181.10
2017-07-28T15:56:35.362Z,98169.52
2017-07-28T15:59:03.681Z,98179.00
2017-07-28T16:01:32.800Z,98179.42
2017-07-28T16:04:01.134Z,98169.30
2017-07-28T16:06:29.471Z,98177.69
2017-07-28T16:08:57.807Z,98171.28
2017-07-28T16:11:26.891Z,98167.70
2017-07-28T16:13:55.231Z,98169.19
2017-07-28T16:16:23.567Z,98162.92
2017-07-28T16:18:52.673Z,98159.30
2017-07-28T16:21:21.021Z,98158.38
2017-07-28T16:23:49.362Z,98160.91
2017-07-28T16:26:17.723Z,98156.61
2017-07-28T16:28:46.067Z,98157.41
2017-07-28T16:31:14.407Z,98156.64
2017-07-28T16:33:42.799Z,98152.23
2017-07-28T16:36:11.119Z,98152.89
2017-07-28T16:38:39.479Z,98155.28
2017-07-28T16:41:07.840Z,98153.03
2017-07-28T16:43:36.170Z,98160.38
2017-07-28T16:46:04.511Z,98159.55
2017-07-28T16:48:32.853Z,98170.91
2017-07-28T16:51:01.208Z,98174.95
2017-07-28T16:53:29.572Z,98171.97
2017-07-28T16:55:58.680Z,98176.14
2017-07-28T16:58:27.017Z,98172.57
2017-07-28T17:00:55.371Z,98181.80
2017-07-28T17:03:23.719Z,98174.33
2017-07-28T17:05:52.066Z,98175.11
2017-07-28T17:08:21.086Z,98170.66
2017-07-28T17:10:50.243Z,98170.46
2017-07-28T17:13:18.606Z,98170.53
2017-07-28T17:15:46.955Z,98163.39
2017-07-28T17:18:15.295Z,98158.24
2017-07-28T17:20:43.638Z,98162.28
2017-07-28T17:23:12.251Z,98163.09
2017-07-28T17:25:40.591Z,98152.55
2017-07-28T17:28:08.943Z,98153.04
2017-07-28T17:30:37.297Z,98164.27
2017-07-28T17:33:05.610Z,98170.13
2017-07-28T17:35:33.967Z,98163.19
2017-07-28T17:38:02.298Z,98158.81
2017-07-28T17:40:30.643Z,98160.18
2017-07-28T17:42:59.759Z,98155.90
2017-07-28T17:45:28.091Z,98166.17
2017-07-28T17:47:56.472Z,98164.30
2017-07-28T17:50:24.825Z,98156.78
2017-07-28T17:52:53.173Z,98160.92
2017-07-28T17:55:21.516Z,98161.84
2017-07-28T17:57:49.856Z,98167.44
2017-07-28T18:00:19.515Z,98172.86
2017-07-28T18:02:48.638Z,98173.30
2017-07-28T18:05:16.981Z,98176.86
2017-07-28T18:07:45.330Z,98188.00
2017-07-28T18:10:13.668Z,98185.89
2017-07-28T18:12:42.030Z,98184.30
2017-07-28T18:15:11.126Z,98186.71
2017-07-28T18:17:39.487Z,98181.03
2017-07-28T18:20:07.837Z,98181.31
2017-07-28T18:22:36.187Z,98182.23
2017-07-28T18:25:04.524Z,98186.55
2017-07-28T18:27:32.869Z,98191.33
2017-07-28T18:30:01.256Z,98191.61
2017-07-28T18:32:29.613Z,98193.03
2017-07-28T18:34:57.935Z,98193.01
2017-07-28T18:37:26.293Z,98186.23
2017-07-28T18:39:54.634Z,98194.97
2017-07-28T18:42:22.982Z,98189.86
2017-07-28T18:44:51.358Z,98195.38
2017-07-28T18:47:19.738Z,98191.49
2017-07-28T18:49:48.066Z,98192.89
2017-07-28T18:52:16.851Z,98193.08
2017-07-28T18:54:45.191Z,98198.08
2017-07-28T18:57:13.532Z,98198.98
2017-07-28T18:59:41.897Z,98203.89
2017-07-28T19:02:10.239Z,98210.05
2017-07-28T19:04:39.355Z,98217.78
2017-07-28T19:07:07.692Z,98228.39
2017-07-28T19:09:36.037Z,98225.56
2017-07-28T19:12:04.405Z,98225.53
2017-07-28T19:14:32.728Z,98220.13
2017-07-28T19:17:01.055Z,98223.30
2017-07-28T19:19:29.409Z,98225.05
2017-07-28T19:21:57.741Z,98232.48
2017-07-28T19:24:26.095Z,98240.69
2017-07-28T19:26:54.458Z,98233.81
2017-07-28T19:29:22.823Z,98239.71
2017-07-28T19:31:53.262Z,98252.03
2017-07-28T19:34:22.369Z,98253.08
2017-07-28T19:36:51.081Z,98247.89
2017-07-28T19:39:19.421Z,98240.78
2017-07-28T19:41:47.768Z,98245.47
2017-07-28T19:44:16.522Z,98252.98
2017-07-28T19:46:44.861Z,98257.04
2017-07-28T19:49:13.563Z,98253.42
2017-07-28T19:51:41.904Z,98266.13
2017-07-28T19:54:10.249Z,98264.63
2017-07-28T19:56:38.606Z,98261.86
2017-07-28T19:59:07.722Z,98267.94
2017-07-28T20:01:36.556Z,98263.37
2017-07-28T20:04:05.333Z,98268.60
2017-07-28T20:06:33.678Z,98272.28
2017-07-28T20:09:02.982Z,98268.74
2017-07-28T20:11:31.600Z,98266.24
2017-07-28T20:13:59.935Z,98278.25
2017-07-28T20:16:28.287Z,98281.93
2017-07-28T20:18:56.647Z,98282.36
2017-07-28T20:21:25.012Z,98286.78
2017-07-28T20:23:53.472Z,98282.30
2017-07-28T20:26:22.412Z,98269.88
2017-07-28T20:28:51.427Z,98277.17
2017-07-28T20:31:20.387Z,98273.70
2017-07-28T20:33:49.330Z,98270.91
2017-07-28T20:36:17.807Z,98267.48
2017-07-28T20:38:46.190Z,98265.94
2017-07-28T20:41:14.544Z,98264.83
2017-07-28T20:43:42.919Z,98259.85
2017-07-28T20:46:11.251Z,98256.90
2017-07-28T20:48:39.610Z,98260.33
2017-07-28T20:51:07.950Z,98258.98
2017-07-28T20:53:36.937Z,98263.63
2017-07-28T20:56:05.922Z,98264.69
2017-07-28T20:58:34.981Z,98269.31
2017-07-28T21:01:04.255Z,98266.20
2017-07-28T21:03:33.007Z,98265.46
2017-07-28T21:06:01.357Z,98260.40
2017-07-28T21:08:30.948Z,98259.35
2017-07-28T21:10:59.297Z,98250.20
2017-07-28T21:13:27.650Z,98251.23
2017-07-28T21:15:56.000Z,98250.45
2017-07-28T21:18:24.333Z,98254.92
2017-07-28T21:20:52.709Z,98254.98
2017-07-28T21:23:21.060Z,98254.81
2017-07-28T21:25:49.393Z,98260.42
2017-07-28T21:28:18.246Z,98263.28
2017-07-28T21:30:46.578Z,98261.02
2017-07-28T21:33:15.708Z,98262.94
2017-07-28T21:35:44.035Z,98268.00
2017-07-28T21:38:12.377Z,98266.45
2017-07-28T21:40:40.711Z,98276.34
2017-07-28T21:43:09.824Z,98267.53
2017-07-28T21:45:38.194Z,98269.39
2017-07-28T21:48:06.506Z,98265.80
2017-07-28T21:50:34.842Z,98256.78
2017-07-28T21:53:03.949Z,98254.77
2017-07-28T21:55:32.284Z,98250.72
2017-07-28T21:58:00.926Z,98246.95
2017-07-28T22:00:29.278Z,98251.88
2017-07-28T22:02:58.407Z,98256.14
2017-07-28T22:05:28.437Z,98255.16
2017-07-28T22:07:56.904Z,98251.47
2017-07-28T22:10:25.278Z,98253.48
2017-07-28T22:12:53.637Z,98254.19
2017-07-28T22:15:22.784Z,98256.61
2017-07-28T22:17:51.458Z,98252.08
2017-07-28T22:20:19.822Z,98257.88
2017-07-28T22:22:48.177Z,98256.97
2017-07-28T22:25:16.543Z,98253.05
2017-07-28T22:27:44.894Z,98251.89
2017-07-28T22:30:13.261Z,98251.12
2017-07-28T22:32:41.596Z,98248.50
2017-07-28T22:35:10.720Z,98257.19
2017-07-28T22:37:39.070Z,98255.61
2017-07-28T22:40:07.397Z,98256.89
2017-07-28T22:42:35.762Z,98256.48
2017-07-28T22:45:04.108Z,98239.41
2017-07-28T22:47:33.248Z,98247.48
2017-07-28T22:50:01.627Z,98243.56
2017-07-28T22:52:29.944Z,98256.52
2017-07-28T22:54:58.298Z,98257.61
2017-07-28T22:57:26.654Z,98257.27
2017-07-28T22:59:54.976Z,98252.58
2017-07-28T23:02:23.707Z,98261.81
2017-07-28T23:04:52.088Z,98264.96
2017-07-28T23:07:21.220Z,98266.50
2017-07-28T23:09:49.597Z,98268.69
2017-07-28T23:12:17.931Z,98264.69
2017-07-28T23:14:46.295Z,98250.25
2017-07-28T23:17:14.629Z,98247.05
2017-07-28T23:19:42.979Z,98248.77
2017-07-28T23:22:12.084Z,98251.42
2017-07-28T23:24:40.418Z,98253.12
2017-07-28T23:27:08.768Z,98253.81
2017-07-28T23:29:37.094Z,98260.45
2017-07-28T23:32:05.861Z,98253.03
2017-07-28T23:34:34.215Z,98253.28
2017-07-28T23:37:02.624Z,98254.92
2017-07-28T23:39:30.975Z,98254.55
2017-07-28T23:41:59.293Z,98245.25
2017-07-28T23:44:28.027Z,98245.88
2017-07-28T23:46:56.392Z,98238.98
2017-07-28T23:49:25.470Z,98242.25
2017-07-28T23:51:53.818Z,98235.52
2017-07-28T23:54:22.131Z,98237.79
2017-07-28T23:56:51.231Z,98228.14
2017-07-28T23:59:19.590Z,98223.35
